sensor_id;sensor_type;location;lat;lon;timestamp;P1;durP1;ratioP1;P2;durP2;ratioP2
9960;SDS011;5021;51.506;11.320;2023-04-24T00:02:23;3.70;;;2.70;;
9960;SDS011;5021;51.506;11.320;2023-04-24T00:04:49;2.80;;;2.60;;
9960;SDS011;5021;51.506;11.320;2023-04-24T00:07:15;4.40;;;2.53;;
9960;SDS011;5021;51.506;11.320;2023-04-24T00:09:42;3.13;;;2.63;;
9960;SDS011;5021;51.506;11.320;2023-04-24T00:12:08;3.20;;;2.90;;
9960;SDS011;5021;51.506;11.320;2023-04-24T00:14:34;3.03;;;2.53;;
9960;SDS011;5021;51.506;11.320;2023-04-24T00:17:00;4.07;;;2.80;;
9960;SDS011;5021;51.506;11.320;2023-04-24T00:19:27;3.70;;;3.00;;
9960;SDS011;5021;51.506;11.320;2023-04-24T00:21:53;3.23;;;2.93;;
9960;SDS011;5021;51.506;11.320;2023-04-24T00:24:19;3.97;;;2.83;;
9960;SDS011;5021;51.506;11.320;2023-04-24T00:26:45;3.70;;;3.40;;
9960;SDS011;5021;51.506;11.320;2023-04-24T00:29:11;3.10;;;2.90;;
9960;SDS011;5021;51.506;11.320;2023-04-24T00:31:37;3.00;;;2.80;;
9960;SDS011;5021;51.506;11.320;2023-04-24T00:34:03;3.40;;;2.80;;
9960;SDS011;5021;51.506;11.320;2023-04-24T00:36:29;3.40;;;3.00;;
9960;SDS011;5021;51.506;11.320;2023-04-24T00:38:56;2.57;;;2.37;;
9960;SDS011;5021;51.506;11.320;2023-04-24T00:41:22;4.10;;;3.00;;
9960;SDS011;5021;51.506;11.320;2023-04-24T00:43:48;3.80;;;2.60;;
9960;SDS011;5021;51.506;11.320;2023-04-24T00:46:14;3.17;;;2.87;;
9960;SDS011;5021;51.506;11.320;2023-04-24T00:48:41;3.70;;;2.90;;
9960;SDS011;5021;51.506;11.320;2023-04-24T00:51:08;2.90;;;2.60;;
9960;SDS011;5021;51.506;11.320;2023-04-24T00:53:34;2.60;;;2.40;;
9960;SDS011;5021;51.506;11.320;2023-04-24T00:56:00;2.80;;;2.30;;
9960;SDS011;5021;51.506;11.320;2023-04-24T00:58:27;2.43;;;2.23;;
9960;SDS011;5021;51.506;11.320;2023-04-24T01:00:53;2.33;;;2.13;;
9960;SDS011;5021;51.506;11.320;2023-04-24T01:03:21;2.83;;;2.50;;
9960;SDS011;5021;51.506;11.320;2023-04-24T01:05:47;2.83;;;2.40;;
9960;SDS011;5021;51.506;11.320;2023-04-24T01:08:15;4.47;;;2.50;;
9960;SDS011;5021;51.506;11.320;2023-04-24T01:10:41;3.47;;;2.37;;
9960;SDS011;5021;51.506;11.320;2023-04-24T01:13:07;2.77;;;2.27;;
9960;SDS011;5021;51.506;11.320;2023-04-24T01:15:34;3.43;;;2.10;;
9960;SDS011;5021;51.506;11.320;2023-04-24T01:18:00;3.07;;;2.40;;
9960;SDS011;5021;51.506;11.320;2023-04-24T01:20:26;2.37;;;2.17;;
9960;SDS011;5021;51.506;11.320;2023-04-24T01:22:53;4.60;;;2.60;;
9960;SDS011;5021;51.506;11.320;2023-04-24T01:25:21;2.60;;;2.13;;
9960;SDS011;5021;51.506;11.320;2023-04-24T01:27:47;2.70;;;2.50;;
9960;SDS011;5021;51.506;11.320;2023-04-24T01:30:13;2.77;;;2.40;;
9960;SDS011;5021;51.506;11.320;2023-04-24T01:32:39;2.60;;;2.40;;
9960;SDS011;5021;51.506;11.320;2023-04-24T01:35:06;2.63;;;2.33;;
9960;SDS011;5021;51.506;11.320;2023-04-24T01:37:32;3.37;;;2.67;;
9960;SDS011;5021;51.506;11.320;2023-04-24T01:39:58;3.20;;;2.50;;
9960;SDS011;5021;51.506;11.320;2023-04-24T01:42:24;3.30;;;2.60;;
9960;SDS011;5021;51.506;11.320;2023-04-24T01:44:51;2.47;;;2.23;;
9960;SDS011;5021;51.506;11.320;2023-04-24T01:47:17;2.60;;;2.30;;
9960;SDS011;5021;51.506;11.320;2023-04-24T01:49:43;3.33;;;2.30;;
9960;SDS011;5021;51.506;11.320;2023-04-24T01:52:08;2.43;;;2.23;;
9960;SDS011;5021;51.506;11.320;2023-04-24T01:54:34;2.73;;;2.53;;
9960;SDS011;5021;51.506;11.320;2023-04-24T01:57:00;2.83;;;2.43;;
9960;SDS011;5021;51.506;11.320;2023-04-24T01:59:27;2.67;;;2.47;;
9960;SDS011;5021;51.506;11.320;2023-04-24T02:01:54;2.67;;;2.47;;
9960;SDS011;5021;51.506;11.320;2023-04-24T02:04:19;2.73;;;2.50;;
9960;SDS011;5021;51.506;11.320;2023-04-24T02:06:45;2.57;;;2.37;;
9960;SDS011;5021;51.506;11.320;2023-04-24T02:09:11;2.93;;;2.53;;
9960;SDS011;5021;51.506;11.320;2023-04-24T02:11:37;2.60;;;2.40;;
9960;SDS011;5021;51.506;11.320;2023-04-24T02:14:03;2.50;;;2.30;;
9960;SDS011;5021;51.506;11.320;2023-04-24T02:16:29;2.53;;;2.20;;
9960;SDS011;5021;51.506;11.320;2023-04-24T02:18:57;3.50;;;2.10;;
9960;SDS011;5021;51.506;11.320;2023-04-24T02:21:23;3.13;;;2.30;;
9960;SDS011;5021;51.506;11.320;2023-04-24T02:23:50;2.47;;;2.20;;
9960;SDS011;5021;51.506;11.320;2023-04-24T02:26:16;3.10;;;2.47;;
9960;SDS011;5021;51.506;11.320;2023-04-24T02:28:42;2.37;;;2.17;;
9960;SDS011;5021;51.506;11.320;2023-04-24T02:31:08;2.57;;;2.37;;
9960;SDS011;5021;51.506;11.320;2023-04-24T02:33:34;3.30;;;2.60;;
9960;SDS011;5021;51.506;11.320;2023-04-24T02:36:00;2.47;;;2.27;;
9960;SDS011;5021;51.506;11.320;2023-04-24T02:38:26;2.40;;;2.20;;
9960;SDS011;5021;51.506;11.320;2023-04-24T02:40:52;2.43;;;2.23;;
9960;SDS011;5021;51.506;11.320;2023-04-24T02:43:18;2.87;;;2.57;;
9960;SDS011;5021;51.506;11.320;2023-04-24T02:45:44;2.70;;;2.50;;
9960;SDS011;5021;51.506;11.320;2023-04-24T02:48:10;2.50;;;2.30;;
9960;SDS011;5021;51.506;11.320;2023-04-24T02:50:36;2.93;;;2.40;;
9960;SDS011;5021;51.506;11.320;2023-04-24T02:53:02;2.40;;;2.20;;
9960;SDS011;5021;51.506;11.320;2023-04-24T02:55:28;3.37;;;2.47;;
9960;SDS011;5021;51.506;11.320;2023-04-24T02:57:54;3.03;;;2.40;;
9960;SDS011;5021;51.506;11.320;2023-04-24T03:00:20;2.70;;;2.50;;
9960;SDS011;5021;51.506;11.320;2023-04-24T03:02:46;2.50;;;2.30;;
9960;SDS011;5021;51.506;11.320;2023-04-24T03:05:12;3.97;;;2.33;;
9960;SDS011;5021;51.506;11.320;2023-04-24T03:07:38;2.43;;;2.17;;
9960;SDS011;5021;51.506;11.320;2023-04-24T03:10:04;2.40;;;2.20;;
9960;SDS011;5021;51.506;11.320;2023-04-24T03:12:31;2.53;;;2.33;;
9960;SDS011;5021;51.506;11.320;2023-04-24T03:14:56;2.40;;;2.10;;
9960;SDS011;5021;51.506;11.320;2023-04-24T03:17:22;5.10;;;2.30;;
9960;SDS011;5021;51.506;11.320;2023-04-24T03:19:48;2.93;;;2.73;;
9960;SDS011;5021;51.506;11.320;2023-04-24T03:22:14;2.30;;;2.10;;
9960;SDS011;5021;51.506;11.320;2023-04-24T03:24:40;2.60;;;2.40;;
9960;SDS011;5021;51.506;11.320;2023-04-24T03:27:06;2.37;;;2.13;;
9960;SDS011;5021;51.506;11.320;2023-04-24T03:29:32;2.40;;;2.10;;
9960;SDS011;5021;51.506;11.320;2023-04-24T03:31:58;2.20;;;2.00;;
9960;SDS011;5021;51.506;11.320;2023-04-24T03:34:24;2.60;;;2.40;;
9960;SDS011;5021;51.506;11.320;2023-04-24T03:36:50;2.10;;;2.00;;
9960;SDS011;5021;51.506;11.320;2023-04-24T03:39:16;3.57;;;2.20;;
9960;SDS011;5021;51.506;11.320;2023-04-24T03:41:42;3.67;;;2.33;;
9960;SDS011;5021;51.506;11.320;2023-04-24T03:44:07;2.40;;;2.20;;
9960;SDS011;5021;51.506;11.320;2023-04-24T03:46:33;2.50;;;2.30;;
9960;SDS011;5021;51.506;11.320;2023-04-24T03:48:59;2.40;;;2.20;;
9960;SDS011;5021;51.506;11.320;2023-04-24T03:51:25;2.40;;;2.20;;
9960;SDS011;5021;51.506;11.320;2023-04-24T03:53:53;3.27;;;2.30;;
9960;SDS011;5021;51.506;11.320;2023-04-24T03:56:19;3.13;;;2.43;;
9960;SDS011;5021;51.506;11.320;2023-04-24T03:58:45;3.87;;;2.57;;
9960;SDS011;5021;51.506;11.320;2023-04-24T04:01:11;2.43;;;2.23;;
9960;SDS011;5021;51.506;11.320;2023-04-24T04:03:38;3.90;;;2.30;;
9960;SDS011;5021;51.506;11.320;2023-04-24T04:06:04;3.73;;;2.60;;
9960;SDS011;5021;51.506;11.320;2023-04-24T04:08:30;2.67;;;2.47;;
9960;SDS011;5021;51.506;11.320;2023-04-24T04:10:56;3.97;;;2.50;;
9960;SDS011;5021;51.506;11.320;2023-04-24T04:13:21;3.50;;;2.37;;
9960;SDS011;5021;51.506;11.320;2023-04-24T04:15:47;3.20;;;2.37;;
9960;SDS011;5021;51.506;11.320;2023-04-24T04:18:13;2.97;;;2.60;;
9960;SDS011;5021;51.506;11.320;2023-04-24T04:20:40;2.73;;;2.53;;
9960;SDS011;5021;51.506;11.320;2023-04-24T04:23:06;2.70;;;2.50;;
9960;SDS011;5021;51.506;11.320;2023-04-24T04:25:32;3.87;;;2.57;;
9960;SDS011;5021;51.506;11.320;2023-04-24T04:27:58;2.80;;;2.60;;
9960;SDS011;5021;51.506;11.320;2023-04-24T04:30:24;3.77;;;2.63;;
9960;SDS011;5021;51.506;11.320;2023-04-24T04:32:50;2.63;;;2.43;;
9960;SDS011;5021;51.506;11.320;2023-04-24T04:35:16;2.67;;;2.47;;
9960;SDS011;5021;51.506;11.320;2023-04-24T04:37:42;3.73;;;2.50;;
9960;SDS011;5021;51.506;11.320;2023-04-24T04:40:09;2.53;;;2.33;;
9960;SDS011;5021;51.506;11.320;2023-04-24T04:42:36;3.93;;;2.80;;
9960;SDS011;5021;51.506;11.320;2023-04-24T04:45:05;2.97;;;2.73;;
9960;SDS011;5021;51.506;11.320;2023-04-24T04:47:33;2.80;;;2.60;;
9960;SDS011;5021;51.506;11.320;2023-04-24T04:49:59;2.77;;;2.57;;
9960;SDS011;5021;51.506;11.320;2023-04-24T04:52:25;3.10;;;2.80;;
9960;SDS011;5021;51.506;11.320;2023-04-24T04:54:51;2.90;;;2.60;;
9960;SDS011;5021;51.506;11.320;2023-04-24T04:57:17;3.07;;;2.80;;
9960;SDS011;5021;51.506;11.320;2023-04-24T04:59:43;3.40;;;2.93;;
9960;SDS011;5021;51.506;11.320;2023-04-24T05:02:09;2.77;;;2.57;;
9960;SDS011;5021;51.506;11.320;2023-04-24T05:04:35;3.50;;;2.57;;
9960;SDS011;5021;51.506;11.320;2023-04-24T05:07:01;4.00;;;3.07;;
9960;SDS011;5021;51.506;11.320;2023-04-24T05:09:27;3.17;;;2.87;;
9960;SDS011;5021;51.506;11.320;2023-04-24T05:11:54;3.30;;;2.90;;
9960;SDS011;5021;51.506;11.320;2023-04-24T05:14:20;3.00;;;2.70;;
9960;SDS011;5021;51.506;11.320;2023-04-24T05:16:47;2.80;;;2.57;;
9960;SDS011;5021;51.506;11.320;2023-04-24T05:19:13;3.10;;;2.80;;
9960;SDS011;5021;51.506;11.320;2023-04-24T05:21:39;2.97;;;2.70;;
9960;SDS011;5021;51.506;11.320;2023-04-24T05:24:06;3.83;;;2.50;;
9960;SDS011;5021;51.506;11.320;2023-04-24T05:26:32;3.87;;;2.40;;
9960;SDS011;5021;51.506;11.320;2023-04-24T05:28:57;3.47;;;2.60;;
9960;SDS011;5021;51.506;11.320;2023-04-24T05:31:24;2.90;;;2.70;;
9960;SDS011;5021;51.506;11.320;2023-04-24T05:33:50;3.73;;;2.57;;
9960;SDS011;5021;51.506;11.320;2023-04-24T05:36:16;2.87;;;2.57;;
9960;SDS011;5021;51.506;11.320;2023-04-24T05:38:42;4.17;;;2.90;;
9960;SDS011;5021;51.506;11.320;2023-04-24T05:41:08;3.67;;;3.00;;
9960;SDS011;5021;51.506;11.320;2023-04-24T05:43:34;5.43;;;2.97;;
9960;SDS011;5021;51.506;11.320;2023-04-24T05:46:00;2.90;;;2.70;;
9960;SDS011;5021;51.506;11.320;2023-04-24T05:48:26;2.53;;;2.33;;
9960;SDS011;5021;51.506;11.320;2023-04-24T05:50:51;2.70;;;2.50;;
9960;SDS011;5021;51.506;11.320;2023-04-24T05:53:18;2.83;;;2.63;;
9960;SDS011;5021;51.506;11.320;2023-04-24T05:55:44;3.77;;;2.73;;
9960;SDS011;5021;51.506;11.320;2023-04-24T05:58:11;2.97;;;2.67;;
9960;SDS011;5021;51.506;11.320;2023-04-24T06:00:37;2.90;;;2.40;;
9960;SDS011;5021;51.506;11.320;2023-04-24T06:03:07;3.67;;;2.90;;
9960;SDS011;5021;51.506;11.320;2023-04-24T06:05:33;3.00;;;2.70;;
9960;SDS011;5021;51.506;11.320;2023-04-24T06:07:59;2.70;;;2.50;;
9960;SDS011;5021;51.506;11.320;2023-04-24T06:10:24;2.80;;;2.60;;
9960;SDS011;5021;51.506;11.320;2023-04-24T06:12:50;2.87;;;2.50;;
9960;SDS011;5021;51.506;11.320;2023-04-24T06:15:16;2.77;;;2.27;;
9960;SDS011;5021;51.506;11.320;2023-04-24T06:17:42;2.60;;;2.40;;
9960;SDS011;5021;51.506;11.320;2023-04-24T06:20:08;2.87;;;2.50;;
9960;SDS011;5021;51.506;11.320;2023-04-24T06:22:35;2.50;;;2.30;;
9960;SDS011;5021;51.506;11.320;2023-04-24T06:25:01;2.60;;;2.40;;
9960;SDS011;5021;51.506;11.320;2023-04-24T06:27:27;2.70;;;2.50;;
9960;SDS011;5021;51.506;11.320;2023-04-24T06:29:53;2.63;;;2.40;;
9960;SDS011;5021;51.506;11.320;2023-04-24T06:32:23;2.83;;;2.30;;
9960;SDS011;5021;51.506;11.320;2023-04-24T06:34:50;2.20;;;2.00;;
9960;SDS011;5021;51.506;11.320;2023-04-24T06:37:17;2.40;;;2.20;;
9960;SDS011;5021;51.506;11.320;2023-04-24T06:39:43;5.27;;;2.20;;
9960;SDS011;5021;51.506;11.320;2023-04-24T06:42:09;2.70;;;2.20;;
9960;SDS011;5021;51.506;11.320;2023-04-24T06:44:36;2.60;;;2.40;;
9960;SDS011;5021;51.506;11.320;2023-04-24T06:47:06;3.40;;;2.80;;
9960;SDS011;5021;51.506;11.320;2023-04-24T06:49:32;2.60;;;2.40;;
9960;SDS011;5021;51.506;11.320;2023-04-24T06:51:58;2.60;;;2.40;;
9960;SDS011;5021;51.506;11.320;2023-04-24T06:54:24;3.27;;;2.50;;
9960;SDS011;5021;51.506;11.320;2023-04-24T06:56:50;2.40;;;2.20;;
9960;SDS011;5021;51.506;11.320;2023-04-24T06:59:17;4.50;;;2.73;;
9960;SDS011;5021;51.506;11.320;2023-04-24T07:01:42;3.10;;;2.10;;
9960;SDS011;5021;51.506;11.320;2023-04-24T07:04:08;3.13;;;2.20;;
9960;SDS011;5021;51.506;11.320;2023-04-24T07:06:34;2.67;;;2.00;;
9960;SDS011;5021;51.506;11.320;2023-04-24T07:09:00;2.60;;;2.30;;
9960;SDS011;5021;51.506;11.320;2023-04-24T07:11:28;2.53;;;2.33;;
9960;SDS011;5021;51.506;11.320;2023-04-24T07:13:54;3.33;;;2.60;;
9960;SDS011;5021;51.506;11.320;2023-04-24T07:16:20;3.53;;;2.27;;
9960;SDS011;5021;51.506;11.320;2023-04-24T07:18:46;2.50;;;2.30;;
9960;SDS011;5021;51.506;11.320;2023-04-24T07:21:12;2.57;;;2.37;;
9960;SDS011;5021;51.506;11.320;2023-04-24T07:23:38;2.83;;;2.37;;
9960;SDS011;5021;51.506;11.320;2023-04-24T07:26:06;2.30;;;2.10;;
9960;SDS011;5021;51.506;11.320;2023-04-24T07:28:32;3.13;;;2.20;;
9960;SDS011;5021;51.506;11.320;2023-04-24T07:30:58;2.33;;;2.00;;
9960;SDS011;5021;51.506;11.320;2023-04-24T07:33:24;2.00;;;1.70;;
9960;SDS011;5021;51.506;11.320;2023-04-24T07:35:50;2.23;;;2.00;;
9960;SDS011;5021;51.506;11.320;2023-04-24T07:38:16;2.23;;;1.83;;
9960;SDS011;5021;51.506;11.320;2023-04-24T07:40:45;2.07;;;1.80;;
9960;SDS011;5021;51.506;11.320;2023-04-24T07:43:11;3.40;;;2.23;;
9960;SDS011;5021;51.506;11.320;2023-04-24T07:45:37;2.63;;;1.80;;
9960;SDS011;5021;51.506;11.320;2023-04-24T07:48:04;2.13;;;1.70;;
9960;SDS011;5021;51.506;11.320;2023-04-24T07:50:30;1.70;;;1.40;;
9960;SDS011;5021;51.506;11.320;2023-04-24T07:52:56;2.13;;;1.70;;
9960;SDS011;5021;51.506;11.320;2023-04-24T07:55:22;3.13;;;1.43;;
9960;SDS011;5021;51.506;11.320;2023-04-24T07:57:48;2.23;;;2.03;;
9960;SDS011;5021;51.506;11.320;2023-04-24T08:00:15;2.73;;;1.80;;
9960;SDS011;5021;51.506;11.320;2023-04-24T08:02:41;2.60;;;1.50;;
9960;SDS011;5021;51.506;11.320;2023-04-24T08:05:07;2.13;;;1.60;;
9960;SDS011;5021;51.506;11.320;2023-04-24T08:07:33;1.90;;;1.40;;
9960;SDS011;5021;51.506;11.320;2023-04-24T08:10:00;1.63;;;1.30;;
9960;SDS011;5021;51.506;11.320;2023-04-24T08:12:27;2.27;;;1.50;;
9960;SDS011;5021;51.506;11.320;2023-04-24T08:14:53;2.20;;;1.30;;
9960;SDS011;5021;51.506;11.320;2023-04-24T08:17:19;1.50;;;1.40;;
9960;SDS011;5021;51.506;11.320;2023-04-24T08:19:45;2.53;;;1.30;;
9960;SDS011;5021;51.506;11.320;2023-04-24T08:22:16;1.70;;;1.40;;
9960;SDS011;5021;51.506;11.320;2023-04-24T08:24:41;1.63;;;1.50;;
9960;SDS011;5021;51.506;11.320;2023-04-24T08:27:08;1.50;;;1.40;;
9960;SDS011;5021;51.506;11.320;2023-04-24T08:29:35;1.97;;;1.47;;
9960;SDS011;5021;51.506;11.320;2023-04-24T08:32:01;1.67;;;1.40;;
9960;SDS011;5021;51.506;11.320;2023-04-24T08:34:27;2.47;;;1.60;;
9960;SDS011;5021;51.506;11.320;2023-04-24T08:36:53;1.83;;;1.50;;
9960;SDS011;5021;51.506;11.320;2023-04-24T08:39:19;2.30;;;1.37;;
9960;SDS011;5021;51.506;11.320;2023-04-24T08:41:45;1.57;;;1.43;;
9960;SDS011;5021;51.506;11.320;2023-04-24T08:44:13;2.07;;;1.50;;
9960;SDS011;5021;51.506;11.320;2023-04-24T08:46:41;1.60;;;1.30;;
9960;SDS011;5021;51.506;11.320;2023-04-24T08:49:08;1.83;;;1.43;;
9960;SDS011;5021;51.506;11.320;2023-04-24T08:51:34;1.53;;;1.40;;
9960;SDS011;5021;51.506;11.320;2023-04-24T08:54:02;1.70;;;1.60;;
9960;SDS011;5021;51.506;11.320;2023-04-24T08:56:28;1.93;;;1.30;;
9960;SDS011;5021;51.506;11.320;2023-04-24T08:58:55;1.87;;;1.30;;
9960;SDS011;5021;51.506;11.320;2023-04-24T09:01:22;2.40;;;1.43;;
9960;SDS011;5021;51.506;11.320;2023-04-24T09:03:49;1.57;;;1.40;;
9960;SDS011;5021;51.506;11.320;2023-04-24T09:06:16;1.47;;;1.37;;
9960;SDS011;5021;51.506;11.320;2023-04-24T09:08:43;3.13;;;1.47;;
9960;SDS011;5021;51.506;11.320;2023-04-24T09:11:09;1.40;;;1.30;;
9960;SDS011;5021;51.506;11.320;2023-04-24T09:13:35;1.67;;;1.50;;
9960;SDS011;5021;51.506;11.320;2023-04-24T09:16:02;1.60;;;1.40;;
9960;SDS011;5021;51.506;11.320;2023-04-24T09:18:28;1.57;;;1.47;;
9960;SDS011;5021;51.506;11.320;2023-04-24T09:21:01;1.77;;;1.60;;
9960;SDS011;5021;51.506;11.320;2023-04-24T09:23:27;3.67;;;1.90;;
9960;SDS011;5021;51.506;11.320;2023-04-24T09:25:55;2.00;;;1.70;;
9960;SDS011;5021;51.506;11.320;2023-04-24T09:28:24;2.80;;;1.40;;
9960;SDS011;5021;51.506;11.320;2023-04-24T09:33:35;1.90;;;1.60;;
9960;SDS011;5021;51.506;11.320;2023-04-24T09:36:01;2.23;;;1.70;;
9960;SDS011;5021;51.506;11.320;2023-04-24T09:38:37;1.57;;;1.47;;
9960;SDS011;5021;51.506;11.320;2023-04-24T09:41:07;1.83;;;1.53;;
9960;SDS011;5021;51.506;11.320;2023-04-24T09:43:33;1.60;;;1.50;;
9960;SDS011;5021;51.506;11.320;2023-04-24T09:46:03;2.47;;;1.63;;
9960;SDS011;5021;51.506;11.320;2023-04-24T09:48:30;3.03;;;1.63;;
9960;SDS011;5021;51.506;11.320;2023-04-24T09:50:56;2.03;;;1.57;;
9960;SDS011;5021;51.506;11.320;2023-04-24T09:53:26;1.40;;;1.30;;
9960;SDS011;5021;51.506;11.320;2023-04-24T09:55:53;1.50;;;1.37;;
9960;SDS011;5021;51.506;11.320;2023-04-24T09:58:25;2.80;;;1.50;;
9960;SDS011;5021;51.506;11.320;2023-04-24T10:00:54;1.67;;;1.43;;
9960;SDS011;5021;51.506;11.320;2023-04-24T10:03:22;1.70;;;1.40;;
9960;SDS011;5021;51.506;11.320;2023-04-24T10:05:49;1.40;;;1.30;;
9960;SDS011;5021;51.506;11.320;2023-04-24T10:08:17;3.37;;;1.40;;
9960;SDS011;5021;51.506;11.320;2023-04-24T10:10:44;1.53;;;1.43;;
9960;SDS011;5021;51.506;11.320;2023-04-24T10:13:10;1.53;;;1.43;;
9960;SDS011;5021;51.506;11.320;2023-04-24T10:15:37;1.47;;;1.37;;
9960;SDS011;5021;51.506;11.320;2023-04-24T10:18:06;1.47;;;1.17;;
9960;SDS011;5021;51.506;11.320;2023-04-24T10:20:35;2.13;;;1.57;;
9960;SDS011;5021;51.506;11.320;2023-04-24T10:23:02;1.73;;;1.40;;
9960;SDS011;5021;51.506;11.320;2023-04-24T10:25:29;1.70;;;1.60;;
9960;SDS011;5021;51.506;11.320;2023-04-24T10:27:56;1.70;;;1.60;;
9960;SDS011;5021;51.506;11.320;2023-04-24T10:30:24;1.70;;;1.60;;
9960;SDS011;5021;51.506;11.320;2023-04-24T10:32:50;1.80;;;1.50;;
9960;SDS011;5021;51.506;11.320;2023-04-24T10:35:17;1.70;;;1.60;;
9960;SDS011;5021;51.506;11.320;2023-04-24T10:37:48;1.97;;;1.37;;
9960;SDS011;5021;51.506;11.320;2023-04-24T10:40:18;2.03;;;1.83;;
9960;SDS011;5021;51.506;11.320;2023-04-24T10:42:48;1.80;;;1.70;;
9960;SDS011;5021;51.506;11.320;2023-04-24T10:45:18;2.00;;;1.80;;
9960;SDS011;5021;51.506;11.320;2023-04-24T10:50:26;1.70;;;1.60;;
9960;SDS011;5021;51.506;11.320;2023-04-24T10:52:52;1.77;;;1.67;;
9960;SDS011;5021;51.506;11.320;2023-04-24T10:55:40;2.37;;;1.60;;
9960;SDS011;5021;51.506;11.320;2023-04-24T10:58:06;2.20;;;1.60;;
9960;SDS011;5021;51.506;11.320;2023-04-24T11:00:32;1.93;;;1.70;;
9960;SDS011;5021;51.506;11.320;2023-04-24T11:02:58;2.30;;;1.97;;
9960;SDS011;5021;51.506;11.320;2023-04-24T11:05:49;2.50;;;2.00;;
9960;SDS011;5021;51.506;11.320;2023-04-24T11:13:09;2.10;;;1.90;;
9960;SDS011;5021;51.506;11.320;2023-04-24T11:15:35;4.23;;;1.80;;
9960;SDS011;5021;51.506;11.320;2023-04-24T11:18:01;3.43;;;1.97;;
9960;SDS011;5021;51.506;11.320;2023-04-24T11:20:27;2.07;;;1.70;;
9960;SDS011;5021;51.506;11.320;2023-04-24T11:22:54;2.93;;;1.90;;
9960;SDS011;5021;51.506;11.320;2023-04-24T11:25:20;2.20;;;2.00;;
9960;SDS011;5021;51.506;11.320;2023-04-24T11:27:47;2.70;;;2.10;;
9960;SDS011;5021;51.506;11.320;2023-04-24T11:30:17;1.90;;;1.70;;
9960;SDS011;5021;51.506;11.320;2023-04-24T11:32:43;1.90;;;1.63;;
9960;SDS011;5021;51.506;11.320;2023-04-24T11:35:17;2.13;;;1.90;;
9960;SDS011;5021;51.506;11.320;2023-04-24T11:37:44;1.90;;;1.80;;
9960;SDS011;5021;51.506;11.320;2023-04-24T11:40:17;2.13;;;2.00;;
9960;SDS011;5021;51.506;11.320;2023-04-24T11:42:45;2.67;;;1.90;;
9960;SDS011;5021;51.506;11.320;2023-04-24T11:45:12;2.13;;;1.90;;
9960;SDS011;5021;51.506;11.320;2023-04-24T11:47:39;2.20;;;2.00;;
9960;SDS011;5021;51.506;11.320;2023-04-24T11:50:06;3.17;;;2.00;;
9960;SDS011;5021;51.506;11.320;2023-04-24T11:52:33;2.83;;;2.03;;
9960;SDS011;5021;51.506;11.320;2023-04-24T11:54:59;2.50;;;1.53;;
9960;SDS011;5021;51.506;11.320;2023-04-24T11:57:25;3.13;;;1.67;;
9960;SDS011;5021;51.506;11.320;2023-04-24T11:59:53;2.77;;;1.67;;
9960;SDS011;5021;51.506;11.320;2023-04-24T12:02:26;2.17;;;1.60;;
9960;SDS011;5021;51.506;11.320;2023-04-24T12:04:52;2.30;;;2.10;;
9960;SDS011;5021;51.506;11.320;2023-04-24T12:07:19;2.10;;;1.90;;
9960;SDS011;5021;51.506;11.320;2023-04-24T12:09:46;2.70;;;2.07;;
9960;SDS011;5021;51.506;11.320;2023-04-24T12:12:13;3.03;;;2.20;;
9960;SDS011;5021;51.506;11.320;2023-04-24T12:14:43;2.30;;;2.00;;
9960;SDS011;5021;51.506;11.320;2023-04-24T12:17:09;2.30;;;1.87;;
9960;SDS011;5021;51.506;11.320;2023-04-24T12:19:35;2.47;;;2.27;;
9960;SDS011;5021;51.506;11.320;2023-04-24T12:22:02;2.00;;;1.80;;
9960;SDS011;5021;51.506;11.320;2023-04-24T12:24:30;2.57;;;2.10;;
9960;SDS011;5021;51.506;11.320;2023-04-24T12:26:56;2.57;;;2.13;;
9960;SDS011;5021;51.506;11.320;2023-04-24T12:29:22;2.87;;;2.27;;
9960;SDS011;5021;51.506;11.320;2023-04-24T12:31:49;4.00;;;2.60;;
9960;SDS011;5021;51.506;11.320;2023-04-24T12:34:19;2.70;;;2.07;;
9960;SDS011;5021;51.506;11.320;2023-04-24T12:36:45;2.13;;;1.93;;
9960;SDS011;5021;51.506;11.320;2023-04-24T12:39:18;2.40;;;2.00;;
9960;SDS011;5021;51.506;11.320;2023-04-24T12:41:54;5.40;;;2.10;;
9960;SDS011;5021;51.506;11.320;2023-04-24T12:44:28;3.33;;;2.00;;
9960;SDS011;5021;51.506;11.320;2023-04-24T12:46:54;4.57;;;2.20;;
9960;SDS011;5021;51.506;11.320;2023-04-24T12:49:20;2.10;;;1.90;;
9960;SDS011;5021;51.506;11.320;2023-04-24T12:51:46;3.93;;;2.10;;
9960;SDS011;5021;51.506;11.320;2023-04-24T12:54:12;2.10;;;1.90;;
9960;SDS011;5021;51.506;11.320;2023-04-24T12:56:38;1.90;;;1.80;;
9960;SDS011;5021;51.506;11.320;2023-04-24T12:59:04;4.47;;;1.50;;
9960;SDS011;5021;51.506;11.320;2023-04-24T13:01:30;2.10;;;1.40;;
9960;SDS011;5021;51.506;11.320;2023-04-24T13:03:56;3.67;;;1.50;;
9960;SDS011;5021;51.506;11.320;2023-04-24T13:06:22;1.70;;;1.50;;
9960;SDS011;5021;51.506;11.320;2023-04-24T13:08:48;1.57;;;1.47;;
9960;SDS011;5021;51.506;11.320;2023-04-24T13:11:14;1.30;;;1.20;;
9960;SDS011;5021;51.506;11.320;2023-04-24T13:13:40;2.10;;;1.50;;
9960;SDS011;5021;51.506;11.320;2023-04-24T13:16:06;1.60;;;1.50;;
9960;SDS011;5021;51.506;11.320;2023-04-24T13:18:32;1.33;;;1.10;;
9960;SDS011;5021;51.506;11.320;2023-04-24T13:20:58;1.00;;;1.00;;
9960;SDS011;5021;51.506;11.320;2023-04-24T13:23:24;1.37;;;1.13;;
9960;SDS011;5021;51.506;11.320;2023-04-24T13:25:49;1.60;;;1.10;;
9960;SDS011;5021;51.506;11.320;2023-04-24T13:28:15;0.97;;;0.90;;
9960;SDS011;5021;51.506;11.320;2023-04-24T13:30:41;2.83;;;1.07;;
9960;SDS011;5021;51.506;11.320;2023-04-24T13:33:07;0.97;;;0.80;;
9960;SDS011;5021;51.506;11.320;2023-04-24T13:35:33;0.53;;;0.50;;
9960;SDS011;5021;51.506;11.320;2023-04-24T13:37:59;0.53;;;0.43;;
9960;SDS011;5021;51.506;11.320;2023-04-24T13:40:26;0.50;;;0.50;;
9960;SDS011;5021;51.506;11.320;2023-04-24T13:42:52;0.50;;;0.50;;
9960;SDS011;5021;51.506;11.320;2023-04-24T13:45:18;1.33;;;0.97;;
9960;SDS011;5021;51.506;11.320;2023-04-24T13:47:45;1.00;;;1.00;;
9960;SDS011;5021;51.506;11.320;2023-04-24T13:50:11;0.63;;;0.63;;
9960;SDS011;5021;51.506;11.320;2023-04-24T13:52:37;1.63;;;1.00;;
9960;SDS011;5021;51.506;11.320;2023-04-24T13:55:03;0.80;;;0.80;;
9960;SDS011;5021;51.506;11.320;2023-04-24T13:57:29;3.73;;;1.40;;
9960;SDS011;5021;51.506;11.320;2023-04-24T13:59:56;1.30;;;1.20;;
9960;SDS011;5021;51.506;11.320;2023-04-24T14:02:26;0.80;;;0.80;;
9960;SDS011;5021;51.506;11.320;2023-04-24T14:04:51;0.93;;;0.90;;
9960;SDS011;5021;51.506;11.320;2023-04-24T14:07:17;2.00;;;0.97;;
9960;SDS011;5021;51.506;11.320;2023-04-24T14:09:43;0.90;;;0.90;;
9960;SDS011;5021;51.506;11.320;2023-04-24T14:12:09;0.80;;;0.80;;
9960;SDS011;5021;51.506;11.320;2023-04-24T14:14:35;0.97;;;0.93;;
9960;SDS011;5021;51.506;11.320;2023-04-24T14:17:01;0.90;;;0.90;;
9960;SDS011;5021;51.506;11.320;2023-04-24T14:19:27;1.00;;;1.00;;
9960;SDS011;5021;51.506;11.320;2023-04-24T14:21:53;0.70;;;0.70;;
9960;SDS011;5021;51.506;11.320;2023-04-24T14:24:20;1.23;;;1.13;;
9960;SDS011;5021;51.506;11.320;2023-04-24T14:26:46;1.50;;;1.10;;
9960;SDS011;5021;51.506;11.320;2023-04-24T14:29:12;0.90;;;0.83;;
9960;SDS011;5021;51.506;11.320;2023-04-24T14:31:38;0.90;;;0.90;;
9960;SDS011;5021;51.506;11.320;2023-04-24T14:34:04;0.83;;;0.83;;
9960;SDS011;5021;51.506;11.320;2023-04-24T14:36:30;2.27;;;0.83;;
9960;SDS011;5021;51.506;11.320;2023-04-24T14:38:56;1.20;;;1.10;;
9960;SDS011;5021;51.506;11.320;2023-04-24T14:41:22;1.03;;;0.97;;
9960;SDS011;5021;51.506;11.320;2023-04-24T14:43:48;1.10;;;1.00;;
9960;SDS011;5021;51.506;11.320;2023-04-24T14:46:14;2.43;;;0.80;;
9960;SDS011;5021;51.506;11.320;2023-04-24T14:48:40;0.67;;;0.67;;
9960;SDS011;5021;51.506;11.320;2023-04-24T14:51:06;0.97;;;0.83;;
9960;SDS011;5021;51.506;11.320;2023-04-24T14:53:32;0.70;;;0.70;;
9960;SDS011;5021;51.506;11.320;2023-04-24T14:55:58;0.93;;;0.60;;
9960;SDS011;5021;51.506;11.320;2023-04-24T14:58:24;0.70;;;0.70;;
9960;SDS011;5021;51.506;11.320;2023-04-24T15:00:50;0.70;;;0.70;;
9960;SDS011;5021;51.506;11.320;2023-04-24T15:03:17;1.40;;;0.80;;
9960;SDS011;5021;51.506;11.320;2023-04-24T15:05:43;0.70;;;0.67;;
9960;SDS011;5021;51.506;11.320;2023-04-24T15:08:09;1.13;;;0.93;;